Time;durP1;ratioP1;P1;durP2;ratioP2;P2;SDS_P1;SDS_P2;PMS_P1;PMS_P2;Temp;Humidity;BMP_temperature;BMP_pressure;BME280_temperature;BME280_humidity;BME280_pressure;Samples;Min_cycle;Max_cycle;Signal;HPM_P1;HPM_P2
2023/05/02 00:00:51;;;;;;;43.55;21.77;;;12.80;99.90;;;;;;5013172;28;20079;-79
2023/05/02 00:03:16;;;;;;;43.40;22.70;;;12.70;99.90;;;;;;5009649;28;20040;-79
2023/05/02 00:05:42;;;;;;;46.65;21.75;;;12.60;99.90;;;;;;5015251;28;20026;-79
2023/05/02 00:08:11;;;;;;;47.55;22.15;;;12.50;99.90;;;;;;5018789;28;20018;-79
2023/05/02 00:10:36;;;;;;;41.80;20.88;;;12.40;99.90;;;;;;5010402;28;20025;-78
2023/05/02 00:13:04;;;;;;;45.85;23.13;;;12.30;99.90;;;;;;5015418;28;20017;-79
2023/05/02 00:15:30;;;;;;;41.25;20.98;;;12.30;99.90;;;;;;5018727;28;20473;-79
2023/05/02 00:17:56;;;;;;;44.08;19.88;;;12.20;99.90;;;;;;5011731;28;20152;-79
2023/05/02 00:20:21;;;;;;;47.55;20.77;;;12.20;99.90;;;;;;5021509;28;20491;-79
2023/05/02 00:22:47;;;;;;;41.53;19.45;;;12.20;99.90;;;;;;5016757;28;20025;-79
2023/05/02 00:25:15;;;;;;;44.15;19.55;;;12.30;99.90;;;;;;5029286;28;20026;-79
2023/05/02 00:27:41;;;;;;;41.78;18.98;;;12.30;99.90;;;;;;5015252;28;20100;-79
2023/05/02 00:30:08;;;;;;;39.70;18.02;;;12.30;99.90;;;;;;5015021;28;20064;-79
2023/05/02 00:32:34;;;;;;;39.17;18.63;;;12.40;99.90;;;;;;5015769;28;20557;-80
2023/05/02 00:35:00;;;;;;;38.65;17.60;;;12.40;99.90;;;;;;5013188;28;20025;-79
2023/05/02 00:37:27;;;;;;;37.42;17.27;;;12.40;99.90;;;;;;5019171;28;20056;-79
2023/05/02 00:39:53;;;;;;;39.38;16.42;;;12.40;99.90;;;;;;5012174;28;20384;-79
2023/05/02 00:42:18;;;;;;;33.75;16.88;;;12.50;99.90;;;;;;5008655;28;20018;-79
2023/05/02 00:44:45;;;;;;;35.83;16.25;;;12.60;99.90;;;;;;5013180;28;20148;-79
2023/05/02 00:47:10;;;;;;;32.97;15.70;;;12.60;99.90;;;;;;5015015;28;20286;-79
2023/05/02 00:49:38;;;;;;;34.88;16.50;;;12.70;99.90;;;;;;5017151;28;20683;-79
2023/05/02 00:52:04;;;;;;;32.38;16.00;;;12.60;99.90;;;;;;5027144;28;20473;-79
2023/05/02 00:54:30;;;;;;;34.85;16.33;;;12.70;99.90;;;;;;5015085;28;20024;-78
2023/05/02 00:56:58;;;;;;;35.13;16.23;;;12.60;99.90;;;;;;5015629;28;20510;-79
2023/05/02 00:59:25;;;;;;;33.83;14.95;;;12.70;99.90;;;;;;5013202;28;20103;-79
2023/05/02 01:02:09;;;;;;;36.20;15.57;;;12.70;99.90;;;;;;5016866;28;20443;-79
2023/05/02 01:04:59;;;;;;;33.85;16.38;;;12.80;99.90;;;;;;5012934;28;20400;-79
2023/05/02 01:07:51;;;;;;;32.03;14.52;;;12.70;99.90;;;;;;5011600;28;20048;-79
2023/05/02 01:10:37;;;;;;;30.83;14.18;;;12.80;99.90;;;;;;5016726;28;20049;-80
2023/05/02 01:13:11;;;;;;;32.42;14.52;;;12.70;99.90;;;;;;5008455;28;20136;-79
2023/05/02 01:15:39;;;;;;;30.85;14.73;;;12.70;99.90;;;;;;5023122;28;20037;-79
2023/05/02 01:18:08;;;;;;;33.80;15.48;;;12.70;99.90;;;;;;5011689;28;20037;-79
2023/05/02 01:20:40;;;;;;;34.20;14.60;;;12.70;99.90;;;;;;5014468;28;20021;-79
2023/05/02 01:23:35;;;;;;;30.95;14.15;;;12.80;99.90;;;;;;5011853;28;20121;-79
2023/05/02 01:26:31;;;;;;;30.55;14.25;;;12.80;99.90;;;;;;4982121;28;20492;-78
2023/05/02 01:28:58;;;;;;;35.13;15.13;;;12.80;99.90;;;;;;5011346;28;20409;-79
2023/05/02 01:31:46;;;;;;;29.70;13.65;;;12.80;99.90;;;;;;5013510;28;20034;-79
2023/05/02 01:34:12;;;;;;;31.17;14.00;;;12.70;99.90;;;;;;5012392;28;20470;-78
2023/05/02 01:36:42;;;;;;;27.42;12.82;;;12.70;99.90;;;;;;5012977;28;20614;-78
2023/05/02 01:39:18;;;;;;;33.00;14.10;;;12.70;99.90;;;;;;5010463;28;20018;-79
2023/05/02 01:41:45;;;;;;;27.33;13.00;;;12.70;99.90;;;;;;5027048;28;20025;-79
2023/05/02 01:44:12;;;;;;;29.58;12.82;;;12.70;99.90;;;;;;5011895;28;20028;-79
2023/05/02 01:46:42;;;;;;;29.30;13.18;;;12.60;99.90;;;;;;5016595;28;20021;-79
2023/05/02 01:49:09;;;;;;;29.08;12.13;;;12.70;99.90;;;;;;5011406;28;20647;-79
2023/05/02 01:51:39;;;;;;;24.02;11.43;;;12.70;99.90;;;;;;5012764;28;20037;-79
2023/05/02 01:54:07;;;;;;;24.05;10.57;;;12.70;99.90;;;;;;5030144;28;20416;-79
2023/05/02 01:56:36;;;;;;;21.08;11.13;;;12.80;99.90;;;;;;5011558;28;20034;-78
2023/05/02 01:59:07;;;;;;;21.52;10.85;;;12.90;99.90;;;;;;5018368;28;20693;-79
2023/05/02 02:01:36;;;;;;;20.08;10.60;;;12.90;99.90;;;;;;5018231;28;20040;-78
2023/05/02 02:04:04;;;;;;;22.98;11.13;;;12.90;99.90;;;;;;5014959;28;20065;-79
2023/05/02 02:06:30;;;;;;;23.40;11.48;;;13.00;99.90;;;;;;5012640;28;20014;-79
2023/05/02 02:08:55;;;;;;;21.27;10.48;;;13.00;99.90;;;;;;5009592;28;20761;-79
2023/05/02 02:11:31;;;;;;;23.77;11.07;;;13.00;99.90;;;;;;5010518;28;20045;-79
2023/05/02 02:14:05;;;;;;;25.45;10.65;;;13.00;99.90;;;;;;5012247;28;20864;-79
2023/05/02 02:16:35;;;;;;;24.42;11.13;;;13.10;99.90;;;;;;5009261;28;20044;-79
2023/05/02 02:19:21;;;;;;;23.70;11.43;;;13.00;99.90;;;;;;5008949;28;20301;-79
2023/05/02 02:21:48;;;;;;;22.08;10.10;;;13.00;99.90;;;;;;5017163;28;20491;-79
2023/05/02 02:24:17;;;;;;;21.52;10.85;;;13.10;99.90;;;;;;5015597;28;20215;-79
2023/05/02 02:26:43;;;;;;;21.63;10.90;;;13.10;99.90;;;;;;5014298;28;20098;-79
2023/05/02 02:29:08;;;;;;;23.60;10.95;;;13.10;99.90;;;;;;5015985;28;20076;-79
2023/05/02 02:31:35;;;;;;;19.67;10.30;;;13.10;99.90;;;;;;5011991;28;20489;-79
2023/05/02 02:34:01;;;;;;;25.10;10.82;;;13.20;99.90;;;;;;5010797;28;20044;-79
2023/05/02 02:36:30;;;;;;;20.27;10.70;;;13.10;99.90;;;;;;5012216;28;20492;-78
2023/05/02 02:39:33;;;;;;;19.85;10.30;;;13.10;99.90;;;;;;5010026;28;20702;-79
2023/05/02 02:42:23;;;;;;;22.23;10.90;;;13.00;99.90;;;;;;5011241;28;20836;-79
2023/05/02 02:44:55;;;;;;;17.67;9.77;;;13.00;99.90;;;;;;5012929;28;20787;-78
2023/05/02 02:47:31;;;;;;;20.00;10.07;;;13.00;99.90;;;;;;5009115;28;20114;-78
2023/05/02 02:50:19;;;;;;;23.08;10.68;;;13.00;99.90;;;;;;5012351;28;20083;-79
2023/05/02 02:52:59;;;;;;;20.80;10.50;;;12.90;99.90;;;;;;5011469;28;20064;-78
2023/05/02 02:55:42;;;;;;;19.95;9.50;;;12.80;99.90;;;;;;5007485;28;20385;-78
2023/05/02 02:59:05;;;;;;;18.63;9.85;;;12.80;99.90;;;;;;5012442;28;20512;-79
2023/05/02 03:01:33;;;;;;;20.73;9.93;;;12.80;99.90;;;;;;4939562;28;20665;-78
2023/05/02 03:04:00;;;;;;;18.05;9.68;;;12.80;99.90;;;;;;4939694;28;20099;-82
2023/05/02 03:06:26;;;;;;;19.95;9.60;;;12.80;99.90;;;;;;4964289;28;20358;-78
2023/05/02 03:08:52;;;;;;;19.50;9.50;;;12.80;99.90;;;;;;5016734;28;20037;-79
2023/05/02 03:11:17;;;;;;;20.98;10.25;;;12.90;99.90;;;;;;5009544;28;20029;-78
2023/05/02 03:13:43;;;;;;;26.08;9.63;;;12.90;99.90;;;;;;5013359;28;20033;-81
2023/05/02 03:16:38;;;;;;;22.00;10.10;;;12.90;99.90;;;;;;5010736;28;20233;-78
2023/05/02 03:19:04;;;;;;;20.40;9.98;;;12.80;99.90;;;;;;5010069;28;20030;-79
2023/05/02 03:21:31;;;;;;;20.27;11.30;;;12.80;99.90;;;;;;5012228;28;20050;-78
2023/05/02 03:24:01;;;;;;;23.88;10.40;;;12.70;99.90;;;;;;5015637;28;20026;-78
2023/05/02 03:26:27;;;;;;;25.55;10.30;;;12.80;99.90;;;;;;5017794;28;20332;-79
2023/05/02 03:28:56;;;;;;;22.02;9.80;;;12.80;99.90;;;;;;5013949;28;20112;-79
2023/05/02 03:31:22;;;;;;;22.27;10.98;;;12.80;99.90;;;;;;5015384;28;20025;-82
2023/05/02 03:33:48;;;;;;;21.52;11.02;;;12.80;99.90;;;;;;5016577;28;20026;-78
2023/05/02 03:36:15;;;;;;;25.55;11.68;;;12.80;99.90;;;;;;5017968;28;20060;-79
2023/05/02 03:38:43;;;;;;;21.60;10.90;;;12.80;99.90;;;;;;5018540;28;21129;-79
2023/05/02 03:41:09;;;;;;;30.08;10.80;;;12.80;99.90;;;;;;5020153;28;20080;-78
2023/05/02 03:43:34;;;;;;;22.88;10.63;;;12.80;99.90;;;;;;5017614;28;20474;-78
2023/05/02 03:46:14;;;;;;;26.42;11.88;;;12.70;99.90;;;;;;5016176;28;20052;-81
2023/05/02 03:48:50;;;;;;;20.27;11.57;;;12.80;99.90;;;;;;5017778;28;20037;-80
2023/05/02 03:51:16;;;;;;;23.35;11.02;;;12.70;99.90;;;;;;5024319;28;20461;-78
2023/05/02 03:53:42;;;;;;;19.67;10.65;;;12.60;99.90;;;;;;5020207;28;20037;-78
2023/05/02 03:56:08;;;;;;;24.48;9.13;;;12.60;99.90;;;;;;5013536;28;20042;-80
2023/05/02 03:58:41;;;;;;;15.07;6.35;;;12.60;99.90;;;;;;5017009;28;20022;-78
2023/05/02 04:01:14;;;;;;;12.82;4.30;;;12.50;99.90;;;;;;5012922;28;20405;-80
2023/05/02 04:03:39;;;;;;;9.70;4.00;;;12.40;99.90;;;;;;5025446;28;20440;-78
2023/05/02 04:06:05;;;;;;;10.85;4.68;;;12.40;99.90;;;;;;5017117;28;20044;-80
2023/05/02 04:08:31;;;;;;;9.00;4.30;;;12.40;99.90;;;;;;5014530;28;20063;-80
2023/05/02 04:10:57;;;;;;;8.95;3.53;;;12.40;99.90;;;;;;5025471;28;20025;-79
2023/05/02 04:13:23;;;;;;;7.05;3.47;;;12.40;99.90;;;;;;5022971;28;20030;-80
2023/05/02 04:15:48;;;;;;;10.52;3.80;;;12.40;99.90;;;;;;5018488;28;20549;-82
2023/05/02 04:18:14;;;;;;;12.95;3.50;;;12.40;99.90;;;;;;5019589;28;20037;-77
2023/05/02 04:20:43;;;;;;;10.85;3.53;;;12.20;99.90;;;;;;5020405;28;20029;-84
2023/05/02 04:23:08;;;;;;;14.98;4.35;;;12.40;99.90;;;;;;5018716;28;20029;-82
2023/05/02 04:25:34;;;;;;;8.73;4.15;;;12.40;99.90;;;;;;5020331;28;20127;-84
2023/05/02 04:28:00;;;;;;;8.50;4.00;;;12.40;99.90;;;;;;5018244;28;20017;-83
2023/05/02 04:30:25;;;;;;;6.72;3.88;;;12.30;99.90;;;;;;5018511;28;20037;-87
2023/05/02 04:32:53;;;;;;;6.25;3.78;;;12.30;99.90;;;;;;5018900;28;20157;-83
2023/05/02 04:35:19;;;;;;;8.88;3.10;;;12.30;99.90;;;;;;5031399;28;20365;-82
2023/05/02 04:37:45;;;;;;;11.10;3.83;;;12.40;99.90;;;;;;5021851;28;20072;-82
2023/05/02 04:40:11;;;;;;;6.20;3.92;;;12.40;99.90;;;;;;5014792;28;20342;-82
2023/05/02 04:42:37;;;;;;;12.13;3.47;;;12.30;99.90;;;;;;5023242;28;20025;-82
2023/05/02 04:45:03;;;;;;;17.13;3.58;;;12.40;99.90;;;;;;5022311;28;20742;-82
2023/05/02 04:47:31;;;;;;;6.70;3.05;;;12.30;99.90;;;;;;5015044;28;20021;-82
2023/05/02 04:49:57;;;;;;;9.80;3.35;;;12.30;99.90;;;;;;5017152;28;20421;-82
2023/05/02 04:52:22;;;;;;;13.77;3.78;;;12.40;99.90;;;;;;5016025;28;20021;-82
2023/05/02 04:54:48;;;;;;;10.15;4.10;;;12.40;99.90;;;;;;5013692;28;20033;-82
2023/05/02 04:57:13;;;;;;;8.52;3.45;;;12.40;99.90;;;;;;5018138;28;20037;-82
2023/05/02 04:59:41;;;;;;;9.65;3.08;;;12.40;99.90;;;;;;5023132;28;20242;-82
2023/05/02 05:02:13;;;;;;;7.93;3.25;;;12.50;99.90;;;;;;5015017;28;20025;-82
2023/05/02 05:04:38;;;;;;;9.35;4.00;;;12.40;99.90;;;;;;5017082;28;20373;-82
2023/05/02 05:07:04;;;;;;;12.15;3.40;;;12.40;99.90;;;;;;5022138;28;20032;-81
2023/05/02 05:09:32;;;;;;;6.70;2.90;;;12.40;99.90;;;;;;5022185;28;20041;-80
2023/05/02 05:11:57;;;;;;;8.23;3.03;;;12.40;99.90;;;;;;5019767;28;20553;-81
2023/05/02 05:14:23;;;;;;;9.23;2.60;;;12.40;99.90;;;;;;5018230;28;20108;-80
2023/05/02 05:16:48;;;;;;;10.68;2.42;;;12.30;99.90;;;;;;5016022;28;20025;-81
2023/05/02 05:19:14;;;;;;;7.75;2.50;;;12.30;99.90;;;;;;5013952;28;20084;-80
2023/05/02 05:21:47;;;;;;;4.65;2.63;;;12.30;99.90;;;;;;5018427;28;20021;-81
2023/05/02 05:24:12;;;;;;;9.57;2.80;;;12.20;99.90;;;;;;5017001;28;20485;-83
2023/05/02 05:26:38;;;;;;;8.18;2.35;;;12.30;99.90;;;;;;5019016;28;20135;-81
2023/05/02 05:29:04;;;;;;;9.88;3.13;;;12.30;99.90;;;;;;5147258;22;20042;-85
2023/05/02 05:31:30;;;;;;;10.38;2.42;;;12.20;99.90;;;;;;5010370;28;20038;-85
2023/05/02 05:33:56;;;;;;;5.95;2.30;;;12.20;99.90;;;;;;5018726;28;20033;-86
2023/05/02 05:36:21;;;;;;;7.78;2.45;;;12.20;99.90;;;;;;5007260;28;20043;-87
2023/05/02 05:38:47;;;;;;;4.45;2.22;;;12.30;99.90;;;;;;5027111;28;20087;-85
2023/05/02 05:41:12;;;;;;;8.07;2.20;;;12.40;99.90;;;;;;5024910;28;20115;-85
2023/05/02 05:43:38;;;;;;;6.80;2.20;;;12.40;99.90;;;;;;5008551;28;20038;-86
2023/05/02 05:46:04;;;;;;;5.65;2.38;;;12.20;99.90;;;;;;5016590;28;20021;-85
2023/05/02 05:48:30;;;;;;;5.88;1.83;;;12.20;99.90;;;;;;5017202;28;20041;-85
2023/05/02 05:50:55;;;;;;;5.47;1.45;;;12.00;99.90;;;;;;5014855;28;20065;-84
2023/05/02 05:53:21;;;;;;;14.68;2.00;;;12.00;99.90;;;;;;5013523;28;20105;-85
2023/05/02 05:55:47;;;;;;;4.38;1.65;;;12.00;99.90;;;;;;5149847;22;20049;-79
2023/05/02 05:58:15;;;;;;;9.13;1.80;;;11.90;99.90;;;;;;5014298;28;20076;-80
2023/05/02 06:00:41;;;;;;;8.57;1.85;;;11.80;99.90;;;;;;5013273;28;20235;-80
2023/05/02 06:03:11;;;;;;;10.43;2.10;;;11.90;99.90;;;;;;5018035;28;20148;-84
2023/05/02 06:05:37;;;;;;;5.25;1.50;;;11.90;99.90;;;;;;5028766;28;20021;-84
2023/05/02 06:08:03;;;;;;;6.70;1.95;;;11.80;99.90;;;;;;5012106;28;20026;-84
2023/05/02 06:10:30;;;;;;;9.45;1.75;;;11.90;99.90;;;;;;5015410;28;20025;-84
2023/05/02 06:12:56;;;;;;;8.68;2.60;;;11.90;99.90;;;;;;5030958;28;20030;-84
2023/05/02 06:15:22;;;;;;;6.47;1.95;;;11.90;99.90;;;;;;5015153;28;20076;-84
2023/05/02 06:17:49;;;;;;;8.20;1.90;;;12.00;99.90;;;;;;5020967;28;20039;-83
2023/05/02 06:20:15;;;;;;;11.20;2.10;;;12.00;99.90;;;;;;5016833;28;20033;-83
2023/05/02 06:22:40;;;;;;;18.45;2.45;;;12.00;99.90;;;;;;5015373;28;20493;-83
2023/05/02 06:25:07;;;;;;;8.48;2.40;;;12.10;99.90;;;;;;5019351;28;20025;-83
2023/05/02 06:27:33;;;;;;;9.90;2.60;;;12.20;99.90;;;;;;5016711;28;20035;-85
2023/05/02 06:29:59;;;;;;;6.47;2.00;;;12.20;99.90;;;;;;5023543;28;20032;-84
2023/05/02 06:32:28;;;;;;;9.25;2.67;;;12.30;99.90;;;;;;5023564;28;20381;-83
2023/05/02 06:34:54;;;;;;;8.73;2.25;;;12.20;99.90;;;;;;5020662;28;20033;-84
2023/05/02 06:37:19;;;;;;;6.75;2.10;;;12.20;99.90;;;;;;5026510;28;20022;-81
2023/05/02 06:39:45;;;;;;;10.95;3.40;;;12.30;99.90;;;;;;5015175;28;20108;-80
2023/05/02 06:42:28;;;;;;;7.00;2.30;;;12.30;99.90;;;;;;5012114;28;20017;-80
2023/05/02 06:44:54;;;;;;;12.60;2.60;;;12.20;99.90;;;;;;5011783;28;20048;-80
2023/05/02 06:47:21;;;;;;;13.15;2.67;;;12.20;99.90;;;;;;5018962;28;20022;-80
2023/05/02 06:49:46;;;;;;;12.90;3.22;;;12.20;99.90;;;;;;5012208;28;20040;-79
2023/05/02 06:52:12;;;;;;;13.88;2.40;;;12.20;99.90;;;;;;5012995;28;20026;-84
2023/05/02 06:54:38;;;;;;;11.85;2.20;;;12.20;99.90;;;;;;5020614;28;20033;-80
2023/05/02 06:57:09;;;;;;;8.43;2.17;;;12.30;99.90;;;;;;5013191;28;20021;-80
2023/05/02 06:59:35;;;;;;;10.23;2.20;;;12.30;99.90;;;;;;5011457;28;20468;-80
2023/05/02 07:02:01;;;;;;;10.73;2.33;;;12.30;99.90;;;;;;5018172;28;20123;-80
2023/05/02 07:04:29;;;;;;;11.80;2.53;;;12.30;99.90;;;;;;5011869;28;20041;-80
2023/05/02 07:06:54;;;;;;;7.85;2.35;;;12.20;99.90;;;;;;5015060;28;20369;-79
2023/05/02 07:09:20;;;;;;;15.82;2.42;;;12.20;99.90;;;;;;5020314;28;20025;-80
2023/05/02 07:11:48;;;;;;;15.82;4.07;;;12.30;99.90;;;;;;5022744;28;20092;-80
2023/05/02 07:14:13;;;;;;;20.45;3.20;;;12.30;99.90;;;;;;5017238;28;20111;-84
2023/05/02 07:16:39;;;;;;;9.90;2.70;;;12.30;99.90;;;;;;5018440;28;20199;-79
2023/05/02 07:19:05;;;;;;;9.82;2.83;;;12.40;99.90;;;;;;5015372;28;20823;-80
2023/05/02 07:21:34;;;;;;;14.07;2.95;;;12.40;99.90;;;;;;5015951;28;20042;-79
2023/05/02 07:24:00;;;;;;;7.93;2.40;;;12.30;99.90;;;;;;5023475;28;20029;-80
2023/05/02 07:26:28;;;;;;;9.57;2.60;;;12.30;99.90;;;;;;5026368;28;20049;-79
2023/05/02 07:28:54;;;;;;;15.95;3.33;;;12.10;99.90;;;;;;5019631;28;20060;-79
2023/05/02 07:31:20;;;;;;;18.90;3.13;;;11.90;99.90;;;;;;5020350;28;20453;-80
2023/05/02 07:33:45;;;;;;;15.38;2.88;;;11.80;99.90;;;;;;5024910;28;20030;-86
2023/05/02 07:36:11;;;;;;;34.50;8.80;;;11.80;99.90;;;;;;5024878;28;20550;-85
2023/05/02 07:38:37;;;;;;;8.82;3.20;;;12.00;99.90;;;;;;5017270;28;20381;-85
2023/05/02 07:41:02;;;;;;;20.75;2.90;;;12.00;99.90;;;;;;5024080;28;20014;-84
2023/05/02 07:43:28;;;;;;;10.23;2.67;;;12.20;99.90;;;;;;5021455;28;20018;-80
2023/05/02 07:45:56;;;;;;;11.55;2.95;;;12.40;99.90;;;;;;5019417;28;20488;-80
2023/05/02 07:48:24;;;;;;;18.02;2.45;;;12.60;99.90;;;;;;5016176;28;20025;-81
2023/05/02 07:50:50;;;;;;;10.55;2.25;;;12.60;99.90;;;;;;5022057;28;20014;-80
2023/05/02 07:53:15;;;;;;;8.85;1.98;;;12.80;99.90;;;;;;5023515;28;20040;-81
2023/05/02 07:55:41;;;;;;;11.88;2.42;;;12.70;99.90;;;;;;5024836;28;20056;-81
2023/05/02 07:58:10;;;;;;;12.57;3.03;;;12.80;99.90;;;;;;5018692;28;20034;-80
2023/05/02 08:00:35;;;;;;;14.18;3.17;;;12.90;99.90;;;;;;5024573;28;20025;-79
2023/05/02 08:03:01;;;;;;;13.98;2.75;;;12.90;99.90;;;;;;5022961;28;20064;-88
2023/05/02 08:05:26;;;;;;;7.35;2.28;;;12.90;99.90;;;;;;5038093;28;20041;-80
2023/05/02 08:07:55;;;;;;;16.88;2.92;;;12.90;99.90;;;;;;5019085;28;20037;-80
2023/05/02 08:10:22;;;;;;;8.25;2.40;;;13.10;99.90;;;;;;5020239;28;20054;-81
2023/05/02 08:12:47;;;;;;;12.57;2.90;;;13.20;99.90;;;;;;5037642;28;20054;-86
2023/05/02 08:15:20;;;;;;;11.05;2.50;;;13.40;99.90;;;;;;5020522;28;20037;-85
2023/05/02 08:17:46;;;;;;;;;;;13.60;99.90;;;;;;5027588;28;20116;-81
2023/05/02 08:20:11;;;;;;;16.60;3.25;;;13.60;99.90;;;;;;5033301;28;20311;-80
2023/05/02 08:22:37;;;;;;;8.57;3.05;;;13.60;99.90;;;;;;5015322;28;20532;-80
2023/05/02 08:25:03;;;;;;;17.63;2.67;;;13.80;99.90;;;;;;5024255;28;20082;-83
2023/05/02 08:27:28;;;;;;;14.68;3.75;;;14.00;99.90;;;;;;5015186;28;20132;-81
2023/05/02 08:29:54;;;;;;;14.13;2.78;;;13.90;99.90;;;;;;5015724;28;20087;-81
2023/05/02 08:32:21;;;;;;;15.75;2.78;;;13.90;99.90;;;;;;5018870;28;20037;-81
2023/05/02 08:34:47;;;;;;;10.98;3.10;;;13.80;99.90;;;;;;5021121;28;20025;-82
2023/05/02 08:37:12;;;;;;;14.73;3.40;;;13.80;99.90;;;;;;5024050;28;20544;-81
2023/05/02 08:39:38;;;;;;;18.02;2.70;;;13.70;99.90;;;;;;5015513;28;20057;-80
2023/05/02 08:42:07;;;;;;;14.02;3.88;;;13.80;99.90;;;;;;5021416;28;20034;-80
2023/05/02 08:44:33;;;;;;;21.60;3.53;;;13.80;99.90;;;;;;5014518;28;20143;-81
2023/05/02 08:46:59;;;;;;;15.38;3.20;;;13.90;99.90;;;;;;5017559;28;20239;-81
2023/05/02 08:49:26;;;;;;;17.13;3.20;;;13.80;99.90;;;;;;5020185;28;20010;-81
2023/05/02 08:51:56;;;;;;;20.13;3.33;;;13.70;99.90;;;;;;5024170;28;20388;-81
2023/05/02 08:54:24;;;;;;;14.43;3.10;;;13.50;99.90;;;;;;5013931;28;20029;-81
2023/05/02 08:56:52;;;;;;;8.85;3.47;;;13.50;99.90;;;;;;5018643;28;20393;-81
2023/05/02 08:59:17;;;;;;;18.90;2.97;;;13.40;99.90;;;;;;5021366;28;20108;-81
2023/05/02 09:01:46;;;;;;;11.35;3.05;;;13.20;99.90;;;;;;5019837;28;20167;-80
2023/05/02 09:04:12;;;;;;;10.80;2.78;;;13.20;99.90;;;;;;5023869;28;20022;-81
2023/05/02 09:06:37;;;;;;;15.45;3.35;;;13.30;99.90;;;;;;5025124;28;20029;-82
2023/05/02 09:09:03;;;;;;;9.75;2.28;;;13.10;99.90;;;;;;5024600;28;20041;-82
2023/05/02 09:11:31;;;;;;;11.77;2.50;;;12.80;99.90;;;;;;5019696;28;20030;-86
2023/05/02 09:14:02;;;;;;;12.73;2.13;;;12.80;99.90;;;;;;5020198;28;20017;-84
2023/05/02 09:16:28;;;;;;;9.85;2.10;;;12.70;99.90;;;;;;5021079;28;20028;-87
2023/05/02 09:18:56;;;;;;;10.30;2.20;;;12.70;99.90;;;;;;5026586;28;20032;-86
2023/05/02 09:21:34;;;;;;;12.80;2.00;;;12.70;99.90;;;;;;5022408;28;20566;-87
2023/05/02 09:24:02;;;;;;;19.10;2.33;;;12.80;99.90;;;;;;5022450;28;20033;-81
2023/05/02 09:26:44;;;;;;;11.30;2.08;;;13.10;99.90;;;;;;5015775;28;20104;-81
2023/05/02 09:29:18;;;;;;;8.02;2.30;;;13.30;99.90;;;;;;5018032;28;20026;-81
2023/05/02 09:31:45;;;;;;;16.88;2.42;;;13.50;99.90;;;;;;5016118;28;20085;-80
2023/05/02 09:34:13;;;;;;;10.75;1.83;;;13.70;99.90;;;;;;5014196;28;20110;-80
2023/05/02 09:36:49;;;;;;;6.00;1.70;;;14.00;99.90;;;;;;5015376;28;20107;-80
2023/05/02 09:39:17;;;;;;;7.45;2.33;;;14.50;99.90;;;;;;5019424;28;20032;-82
2023/05/02 09:41:45;;;;;;;7.47;1.50;;;14.80;99.90;;;;;;5018939;28;20240;-84
2023/05/02 09:44:13;;;;;;;8.98;1.55;;;14.90;99.20;;;;;;5033665;28;20024;-82
2023/05/02 09:46:40;;;;;;;5.97;1.73;;;14.90;98.30;;;;;;5021081;28;20499;-80
2023/05/02 09:49:09;;;;;;;8.93;1.25;;;14.80;97.20;;;;;;5015498;28;20021;-81
2023/05/02 09:51:35;;;;;;;4.50;1.42;;;14.80;96.20;;;;;;5020033;28;20026;-83
2023/05/02 09:54:04;;;;;;;5.90;1.10;;;14.70;95.60;;;;;;5021777;28;20418;-81
2023/05/02 09:56:29;;;;;;;1.98;1.20;;;14.40;95.90;;;;;;5020732;28;20040;-81
2023/05/02 09:59:15;;;;;;;2.72;1.20;;;14.40;94.40;;;;;;5016071;28;20029;-81
2023/05/02 10:01:41;;;;;;;5.65;1.10;;;14.60;94.30;;;;;;5016477;28;20064;-81
2023/05/02 10:04:18;;;;;;;9.00;1.33;;;14.60;93.60;;;;;;5017082;28;20025;-81
2023/05/02 10:06:44;;;;;;;4.68;1.27;;;15.00;95.20;;;;;;5019791;28;20030;-81
2023/05/02 10:09:11;;;;;;;8.15;1.92;;;15.50;94.40;;;;;;5017119;28;20072;-81
2023/05/02 10:11:44;;;;;;;4.03;1.50;;;15.80;92.90;;;;;;5017382;28;20497;-81
2023/05/02 10:14:11;;;;;;;2.92;1.33;;;16.00;91.70;;;;;;5018399;28;20501;-81
2023/05/02 10:16:54;;;;;;;4.80;1.63;;;16.10;92.10;;;;;;5016214;28;20516;-81
2023/05/02 10:19:25;;;;;;;8.70;1.50;;;16.00;91.70;;;;;;5017440;28;20117;-80
2023/05/02 10:21:52;;;;;;;7.47;1.35;;;15.90;91.00;;;;;;5005439;28;20038;-81
2023/05/02 10:24:19;;;;;;;3.45;1.45;;;16.00;92.00;;;;;;5017957;28;20108;-81
2023/05/02 10:26:48;;;;;;;4.15;1.60;;;16.30;92.20;;;;;;5021642;28;20017;-81
2023/05/02 10:29:14;;;;;;;4.13;1.42;;;16.60;87.70;;;;;;5020034;28;20036;-81
2023/05/02 10:31:42;;;;;;;4.45;1.40;;;16.50;87.40;;;;;;5018552;28;20026;-82
2023/05/02 10:34:10;;;;;;;5.07;1.50;;;16.80;86.90;;;;;;5021982;28;20029;-81
2023/05/02 10:36:39;;;;;;;5.05;1.60;;;17.30;90.70;;;;;;5019253;28;20032;-81
2023/05/02 10:39:06;;;;;;;3.72;1.63;;;17.80;86.00;;;;;;5017252;28;20018;-81
2023/05/02 10:41:34;;;;;;;5.20;1.73;;;17.30;83.00;;;;;;5016791;28;20123;-79
2023/05/02 10:44:01;;;;;;;8.52;2.88;;;17.00;81.50;;;;;;5017334;28;20022;-81
2023/05/02 10:46:35;;;;;;;5.50;1.63;;;16.70;80.30;;;;;;5013871;28;20508;-82
2023/05/02 10:49:05;;;;;;;10.40;1.88;;;17.10;88.40;;;;;;5014352;28;20065;-82
2023/05/02 10:51:31;;;;;;;7.30;1.90;;;18.10;80.70;;;;;;5033184;28;20391;-81
2023/05/02 10:54:16;;;;;;;8.20;2.00;;;18.10;78.80;;;;;;5030129;28;20436;-80
2023/05/02 10:57:06;;;;;;;7.43;3.10;;;17.90;79.70;;;;;;5034750;28;20037;-83
2023/05/02 10:59:35;;;;;;;6.25;2.10;;;17.40;78.80;;;;;;5020385;28;20554;-85
2023/05/02 11:02:22;;;;;;;5.95;2.35;;;17.20;81.00;;;;;;5027583;28;20025;-80
2023/05/02 11:05:07;;;;;;;7.05;2.63;;;17.30;82.50;;;;;;5008185;28;20021;-80
2023/05/02 11:07:35;;;;;;;12.43;2.08;;;17.20;81.20;;;;;;5012460;28;20030;-80
2023/05/02 11:10:16;;;;;;;9.32;2.25;;;16.90;80.30;;;;;;5015392;28;20080;-80
2023/05/02 11:12:47;;;;;;;7.38;2.20;;;16.70;81.60;;;;;;5014347;28;20469;-79
2023/05/02 11:15:14;;;;;;;5.38;2.20;;;16.80;79.80;;;;;;5028881;28;20051;-80
2023/05/02 11:17:59;;;;;;;12.07;2.65;;;17.10;78.90;;;;;;5029632;28;20022;-79
2023/05/02 11:20:25;;;;;;;7.10;1.70;;;17.00;78.30;;;;;;5014285;28;20048;-80
2023/05/02 11:22:51;;;;;;;8.82;1.88;;;17.00;78.70;;;;;;5016566;28;20022;-80
2023/05/02 11:25:30;;;;;;;4.47;1.83;;;16.70;78.70;;;;;;5028352;28;20064;-82
2023/05/02 11:27:56;;;;;;;7.00;2.30;;;17.10;80.60;;;;;;5010192;28;20152;-80
2023/05/02 11:30:38;;;;;;;8.18;2.17;;;17.90;82.20;;;;;;5019329;28;20022;-82
2023/05/02 11:33:04;;;;;;;4.85;2.10;;;18.60;74.20;;;;;;5031672;28;20125;-81
2023/05/02 11:35:30;;;;;;;4.43;2.00;;;19.10;73.70;;;;;;5014655;28;20540;-81
2023/05/02 11:38:11;;;;;;;6.38;2.25;;;19.50;74.40;;;;;;5019102;28;20022;-81
2023/05/02 11:40:36;;;;;;;5.60;2.45;;;19.40;69.90;;;;;;5018403;28;20031;-80
2023/05/02 11:43:16;;;;;;;6.22;2.33;;;19.10;68.70;;;;;;5033244;28;20368;-79
2023/05/02 11:45:42;;;;;;;6.38;1.98;;;18.60;69.80;;;;;;5015121;28;20040;-79
2023/05/02 11:48:11;;;;;;;5.22;2.22;;;18.50;70.70;;;;;;5014037;28;20022;-80
2023/05/02 11:50:47;;;;;;;9.20;2.50;;;19.10;74.80;;;;;;5015278;28;20032;-81
2023/05/02 11:53:23;;;;;;;4.53;2.15;;;19.90;65.40;;;;;;5024845;28;20056;-80
2023/05/02 11:55:53;;;;;;;9.00;2.13;;;19.80;67.10;;;;;;5017513;28;20138;-80
2023/05/02 11:58:28;;;;;;;7.35;2.35;;;19.90;64.70;;;;;;5032139;28;20055;-80
2023/05/02 12:00:55;;;;;;;7.22;2.60;;;20.40;63.30;;;;;;5019434;28;20095;-79
2023/05/02 12:03:27;;;;;;;5.65;2.15;;;20.80;62.10;;;;;;5031243;28;20440;-80
2023/05/02 12:05:53;;;;;;;14.50;4.68;;;21.30;63.00;;;;;;5003212;28;20021;-80
2023/05/02 12:08:26;;;;;;;4.88;2.15;;;21.20;59.80;;;;;;5017656;28;20241;-83
2023/05/02 12:10:54;;;;;;;10.02;2.78;;;21.30;63.30;;;;;;5022306;28;20032;-80
2023/05/02 12:13:22;;;;;;;6.20;2.55;;;21.20;57.20;;;;;;5017816;28;20082;-79
2023/05/02 12:15:49;;;;;;;4.75;2.10;;;21.30;59.90;;;;;;5016448;28;20532;-79
2023/05/02 12:18:19;;;;;;;5.53;2.58;;;21.40;59.70;;;;;;5033013;28;20037;-79
2023/05/02 12:20:45;;;;;;;10.50;2.35;;;21.90;59.60;;;;;;5013891;28;20018;-79
2023/05/02 12:23:11;;;;;;;9.05;2.53;;;21.90;57.40;;;;;;5018501;28;20071;-78
2023/05/02 12:25:38;;;;;;;10.02;2.95;;;21.60;57.20;;;;;;5018840;28;20026;-79
2023/05/02 12:28:11;;;;;;;8.57;3.00;;;21.00;58.00;;;;;;5011823;28;20054;-81
2023/05/02 12:30:40;;;;;;;8.77;2.67;;;20.80;61.40;;;;;;5015550;28;20029;-81
2023/05/02 12:33:06;;;;;;;10.90;3.15;;;20.90;59.60;;;;;;5029538;28;20034;-81
2023/05/02 12:35:33;;;;;;;7.68;2.28;;;21.00;62.50;;;;;;5016370;28;20140;-79
2023/05/02 12:38:13;;;;;;;7.93;2.33;;;21.20;58.90;;;;;;5031160;28;20032;-80
2023/05/02 12:40:45;;;;;;;6.97;2.80;;;21.20;55.80;;;;;;5015035;28;20022;-80
2023/05/02 12:43:11;;;;;;;9.55;5.18;;;21.10;58.90;;;;;;5034097;28;20052;-84
2023/05/02 12:45:36;;;;;;;12.75;3.25;;;20.90;56.90;;;;;;5019821;28;20033;-85
2023/05/02 12:48:24;;;;;;;8.85;2.72;;;20.40;58.30;;;;;;5019510;28;20249;-78